Time;durP1;ratioP1;P1;durP2;ratioP2;P2;SDS_P1;SDS_P2;PMS_P1;PMS_P2;Temp;Humidity;BMP_temperature;BMP_pressure;BME280_temperature;BME280_humidity;BME280_pressure;Samples;Min_cycle;Max_cycle;Signal;HPM_P1;HPM_P2
2021/08/29 00:00:41;;;;;;;;;;;;;;;18.39;60.19;99441.16;4448560;32;20040;-88
2021/08/29 00:03:06;;;;;;;;;;;;;;;18.39;60.19;99435.88;4435224;32;19993;-88
2021/08/29 00:05:31;;;;;;;;;;;;;;;17.98;60.16;99431.66;4437069;32;20302;-88
2021/08/29 00:07:57;;;;;;;;;;;;;;;17.90;60.15;99435.75;4436872;32;20004;-88
2021/08/29 00:10:22;;;;;;;;;;;;;;;18.01;60.17;99434.09;4435603;32;19989;-88
2021/08/29 00:12:47;;;;;;;;;;;;;;;18.09;60.18;99434.41;4437015;32;20028;-88
2021/08/29 00:15:12;;;;;;;;;;;;;;;17.90;60.16;99433.09;4435531;32;20019;-87
2021/08/29 00:17:38;;;;;;;;;;;;;;;17.92;60.17;99429.44;4436918;32;20300;-88
2021/08/29 00:20:03;;;;;;;;;;;;;;;18.01;60.17;99420.09;4448306;32;20194;-88
2021/08/29 00:22:28;;;;;;;;;;;;;;;17.90;60.15;99407.63;4448415;32;20036;-88
2021/08/29 00:24:54;;;;;;;;;;;;;;;18.05;60.17;99409.22;4447855;32;20482;-88
2021/08/29 00:27:19;;;;;;;;;;;;;;;17.91;60.16;99405.84;4447815;32;21752;-88
2021/08/29 00:29:44;;;;;;;;;;;;;;;17.98;60.16;99407.97;4447524;32;25627;-87
2021/08/29 00:32:09;;;;;;;;;;;;;;;18.12;60.17;99403.53;4447940;32;20043;-88
2021/08/29 00:34:35;;;;;;;;;;;;;;;17.94;60.16;99398.56;4449562;32;19977;-88
2021/08/29 00:37:00;;;;;;;;;;;;;;;18.04;60.17;99396.16;4450000;32;20457;-88
2021/08/29 00:39:25;;;;;;;;;;;;;;;17.99;60.16;99390.38;4437267;32;20005;-87
2021/08/29 00:41:50;;;;;;;;;;;;;;;17.96;60.16;99380.88;4438251;32;21169;-87
2021/08/29 00:44:15;;;;;;;;;;;;;;;18.01;60.17;99384.06;4438595;32;20030;-87
2021/08/29 00:46:41;;;;;;;;;;;;;;;17.91;60.16;99382.97;4438565;32;20020;-87
2021/08/29 00:49:09;;;;;;;;;;;;;;;17.74;60.15;99378.88;4437344;32;19989;-87
2021/08/29 00:51:34;;;;;;;;;;;;;;;17.82;60.16;99382.75;4438731;32;19986;-87
2021/08/29 00:53:59;;;;;;;;;;;;;;;17.81;60.16;99387.19;4449829;32;21084;-87
2021/08/29 00:56:24;;;;;;;;;;;;;;;17.51;60.13;99384.78;4438095;32;27599;-88
2021/08/29 00:58:53;;;;;;;;;;;;;;;17.66;60.14;99383.75;4450269;32;20069;-87
2021/08/29 01:01:19;;;;;;;;;;;;;;;17.61;60.14;99379.75;4436946;32;20476;-86
2021/08/29 01:03:44;;;;;;;;;;;;;;;17.69;60.14;99380.09;4450111;32;19978;-87
2021/08/29 01:06:24;;;;;;;;;;;;;;;17.83;60.15;99374.75;4438004;32;20535;-88
2021/08/29 01:08:54;;;;;;;;;;;;;;;17.81;60.16;99373.19;4450112;32;20372;-88
2021/08/29 01:11:29;;;;;;;;;;;;;;;17.99;60.16;99375.41;4449969;32;20042;-88
2021/08/29 01:13:58;;;;;;;;;;;;;;;18.01;60.17;99367.41;4437080;32;20392;-85
2021/08/29 01:16:23;;;;;;;;;;;;;;;17.96;60.16;99378.22;4449696;32;20301;-87
2021/08/29 01:18:50;;;;;;;;;;;;;;;17.76;60.15;99371.72;4449810;32;19993;-87
2021/08/29 01:21:17;;;;;;;;;;;;;;;17.76;60.15;99370.88;4450146;32;20369;-87
2021/08/29 01:23:55;;;;;;;;;;;;;;;17.98;60.16;99378.13;4436943;32;20051;-87
2021/08/29 01:26:21;;;;;;;;;;;;;;;17.85;60.16;99375.50;4449990;32;20002;-87
2021/08/29 01:28:55;;;;;;;;;;;;;;;17.66;60.14;99367.97;4438451;32;20004;-87
2021/08/29 01:31:21;;;;;;;;;;;;;;;17.76;60.14;99365.59;4438132;32;19974;-87
2021/08/29 01:33:46;;;;;;;;;;;;;;;17.76;60.15;99370.88;4449787;32;20020;-88
2021/08/29 01:36:12;;;;;;;;;;;;;;;17.60;60.14;99367.53;4450087;32;20066;-87
2021/08/29 01:38:37;;;;;;;;;;;;;;;17.59;60.14;99371.13;4450306;32;20047;-88
2021/08/29 01:41:03;;;;;;;;;;;;;;;17.59;60.14;99371.13;4449555;32;22838;-89
2021/08/29 01:43:28;;;;;;;;;;;;;;;17.56;60.15;99366.06;4437194;32;20009;-88
2021/08/29 01:45:53;;;;;;;;;;;;;;;17.58;60.14;99367.63;4449234;32;28544;-88
2021/08/29 01:48:18;;;;;;;;;;;;;;;17.66;60.14;99365.34;4450270;32;20031;-88
2021/08/29 01:50:44;;;;;;;;;;;;;;;17.67;60.14;99361.78;4437003;32;20034;-89
2021/08/29 01:53:09;;;;;;;;;;;;;;;17.73;60.15;99368.41;4436845;32;19978;-89
2021/08/29 01:55:34;;;;;;;;;;;;;;;17.43;60.13;99364.22;4437002;32;20455;-88
2021/08/29 01:57:59;;;;;;;;;;;;;;;17.52;60.14;99364.59;4436827;32;19981;-89
2021/08/29 02:00:24;;;;;;;;;;;;;;;17.37;60.12;99362.00;4436813;32;19990;-87
2021/08/29 02:02:50;;;;;;;;;;;;;;;17.54;60.13;99357.44;4449672;32;20001;-89
2021/08/29 02:05:15;;;;;;;;;;;;;;;17.54;60.14;99354.78;4449527;32;24252;-88
2021/08/29 02:07:42;;;;;;;;;;;;;;;17.16;60.12;99360.78;4449999;32;19982;-89
2021/08/29 02:10:10;;;;;;;;;;;;;;;17.33;60.13;99360.53;4449946;32;19974;-90
2021/08/29 02:12:37;;;;;;;;;;;;;;;17.33;60.12;99355.28;4449927;32;20326;-89
2021/08/29 02:15:04;;;;;;;;;;;;;;;17.27;60.13;99353.06;4438240;32;19985;-88
2021/08/29 02:17:30;;;;;;;;;;;;;;;17.29;60.12;99351.16;4449978;32;20015;-89
2021/08/29 02:19:55;;;;;;;;;;;;;;;17.21;60.12;99345.53;4436809;32;19977;-89
2021/08/29 02:22:20;;;;;;;;;;;;;;;17.25;60.12;99341.75;4438084;32;19993;-89
2021/08/29 02:24:45;;;;;;;;;;;;;;;17.09;60.12;99335.84;4449835;32;19973;-90
2021/08/29 02:27:11;;;;;;;;;;;;;;;17.09;60.12;99320.91;4437052;32;19994;-89
2021/08/29 02:29:36;;;;;;;;;;;;;;;17.04;60.11;99322.16;4449906;32;20270;-89
2021/08/29 02:32:01;;;;;;;;;;;;;;;17.03;60.11;99320.44;4436598;32;20529;-89
2021/08/29 02:34:27;;;;;;;;;;;;;;;17.08;60.12;99313.97;4449803;32;20001;-90
2021/08/29 02:36:52;;;;;;;;;;;;;;;16.99;60.10;99318.97;4436810;32;19997;-90
2021/08/29 02:39:18;;;;;;;;;;;;;;;16.84;60.10;99315.56;4449670;32;20005;-89
2021/08/29 02:41:43;;;;;;;;;;;;;;;16.95;60.11;99317.47;4449242;32;26542;-88
2021/08/29 02:44:08;;;;;;;;;;;;;;;16.89;60.10;99313.47;4436630;32;20707;-88
2021/08/29 02:46:33;;;;;;;;;;;;;;;16.85;60.11;99307.56;4449293;32;20009;-89
2021/08/29 02:48:58;;;;;;;;;;;;;;;16.56;60.09;99312.03;4437697;32;20482;-89
2021/08/29 02:51:24;;;;;;;;;;;;;;;16.54;60.08;99307.78;4437708;32;20376;-89
2021/08/29 02:53:49;;;;;;;;;;;;;;;16.65;60.09;99312.38;4449440;32;19982;-88
2021/08/29 02:56:14;;;;;;;;;;;;;;;16.54;60.08;99310.41;4448419;32;20007;-89
2021/08/29 02:58:40;;;;;;;;;;;;;;;16.38;60.08;99307.94;4449367;32;19998;-88
2021/08/29 03:01:05;;;;;;;;;;;;;;;16.38;60.07;99312.34;4449670;32;20007;-90
2021/08/29 03:03:30;;;;;;;;;;;;;;;16.59;60.09;99308.37;4437990;32;20004;-88
2021/08/29 03:05:55;;;;;;;;;;;;;;;16.41;60.08;99307.75;4438124;32;20015;-88
2021/08/29 03:08:21;;;;;;;;;;;;;;;16.27;60.07;99298.09;4436895;32;19985;-89
2021/08/29 03:10:46;;;;;;;;;;;;;;;16.17;60.07;99296.97;4436855;32;20346;-90
2021/08/29 03:13:11;;;;;;;;;;;;;;;16.19;60.07;99295.09;4436315;32;25220;-90
2021/08/29 03:15:36;;;;;;;;;;;;;;;16.08;60.06;99291.44;4449791;32;20012;-90
2021/08/29 03:18:02;;;;;;;;;;;;;;;15.99;60.05;99295.50;4438182;32;20041;-90
2021/08/29 03:20:27;;;;;;;;;;;;;;;16.01;60.05;99298.00;4438178;32;20049;-90
2021/08/29 03:22:53;;;;;;;;;;;;;;;16.12;60.06;99301.69;4449518;32;19981;-89
2021/08/29 03:25:18;;;;;;;;;;;;;;;15.86;60.04;99305.06;4449593;32;19978;-89
2021/08/29 03:27:43;;;;;;;;;;;;;;;15.96;60.05;99301.78;4449212;32;20274;-89
2021/08/29 03:30:09;;;;;;;;;;;;;;;15.76;60.04;99299.50;4449761;32;19981;-90
2021/08/29 03:32:34;;;;;;;;;;;;;;;15.77;60.05;99302.97;4449544;32;20044;-90
2021/08/29 03:35:02;;;;;;;;;;;;;;;15.84;60.04;99302.50;4449152;32;20007;-91
2021/08/29 03:37:28;;;;;;;;;;;;;;;15.74;60.04;99298.75;4448978;32;19977;-89
2021/08/29 03:39:53;;;;;;;;;;;;;;;15.96;60.06;99311.44;4437507;32;20011;-89
2021/08/29 03:42:19;;;;;;;;;;;;;;;15.70;60.04;99317.41;4449048;32;20031;-90
2021/08/29 03:44:44;;;;;;;;;;;;;;;15.62;60.03;99325.75;4449234;32;20021;-90
2021/08/29 03:47:09;;;;;;;;;;;;;;;15.47;60.03;99327.44;4449160;32;19969;-89
2021/08/29 03:49:35;;;;;;;;;;;;;;;15.47;60.02;99329.22;4437365;32;19977;-89
2021/08/29 03:52:00;;;;;;;;;;;;;;;15.48;60.03;99321.28;4436100;32;19986;-89
2021/08/29 03:54:25;;;;;;;;;;;;;;;15.46;60.02;99317.91;4436119;32;20001;-89
2021/08/29 03:56:50;;;;;;;;;;;;;;;15.54;60.03;99320.91;4436009;32;19997;-90
2021/08/29 03:59:35;;;;;;;;;;;;;;;15.65;60.04;99322.94;4436122;32;19985;-90
2021/08/29 04:02:00;;;;;;;;;;;;;;;15.51;60.03;99321.09;4437332;32;20037;-89
2021/08/29 04:04:25;;;;;;;;;;;;;;;15.46;60.02;99315.28;4448767;32;20380;-89
2021/08/29 04:06:50;;;;;;;;;;;;;;;15.56;60.04;99307.69;4448776;32;20019;-90
2021/08/29 04:09:16;;;;;;;;;;;;;;;15.28;60.02;99308.47;4450525;32;19978;-89
2021/08/29 04:11:41;;;;;;;;;;;;;;;15.29;60.01;99297.06;4450920;32;20004;-89
2021/08/29 04:14:07;;;;;;;;;;;;;;;15.26;60.02;99290.22;4437850;32;19985;-91
2021/08/29 04:16:33;;;;;;;;;;;;;;;15.14;60.01;99293.56;4450852;32;20113;-90
2021/08/29 04:18:59;;;;;;;;;;;;;;;14.98;60.00;99290.97;4439227;32;20303;-88
2021/08/29 04:21:24;;;;;;;;;;;;;;;14.84;59.99;99292.69;4439113;32;20010;-89
2021/08/29 04:23:49;;;;;;;;;;;;;;;14.71;59.98;99295.16;4450695;32;19986;-89
2021/08/29 04:26:15;;;;;;;;;;;;;;;14.76;59.98;99292.28;4439122;32;20009;-89
2021/08/29 04:28:40;;;;;;;;;;;;;;;14.71;59.99;99290.75;4437556;32;19981;-88
2021/08/29 04:31:25;;;;;;;;;;;;;;;14.69;59.98;99300.50;4439088;32;19977;-89
2021/08/29 04:33:51;;;;;;;;;;;;;;;14.76;59.98;99298.34;4435981;32;19993;-88
2021/08/29 04:36:16;;;;;;;;;;;;;;;14.83;59.99;99302.31;4450804;32;20406;-88
2021/08/29 04:38:41;;;;;;;;;;;;;;;14.87;60.00;99301.19;4438584;32;30804;-88
2021/08/29 04:41:06;;;;;;;;;;;;;;;15.04;60.01;99292.37;4438451;32;29627;-88
2021/08/29 04:43:32;;;;;;;;;;;;;;;14.95;60.00;99293.78;4450230;32;20716;-89
2021/08/29 04:45:57;;;;;;;;;;;;;;;15.18;60.02;99294.22;4437469;32;19966;-88
2021/08/29 04:48:22;;;;;;;;;;;;;;;15.18;60.02;99291.59;4438998;32;19973;-89
2021/08/29 04:50:47;;;;;;;;;;;;;;;15.11;60.01;99287.63;4450377;32;20066;-88
2021/08/29 04:53:13;;;;;;;;;;;;;;;15.15;60.01;99281.31;4450617;32;20332;-88
2021/08/29 04:55:38;;;;;;;;;;;;;;;15.17;60.02;99282.06;4437505;32;20005;-88
2021/08/29 04:58:03;;;;;;;;;;;;;;;15.13;60.01;99293.63;4437433;32;19992;-86
2021/08/29 05:00:28;;;;;;;;;;;;;;;15.28;60.02;99283.09;4438642;32;19982;-90
2021/08/29 05:02:54;;;;;;;;;;;;;;;15.13;60.01;99294.47;4438568;32;19997;-90
2021/08/29 05:05:19;;;;;;;;;;;;;;;15.19;60.02;99293.28;4437335;32;20071;-90
2021/08/29 05:07:44;;;;;;;;;;;;;;;15.24;60.01;99292.09;4437828;32;19997;-90
2021/08/29 05:10:10;;;;;;;;;;;;;;;15.44;60.03;99297.94;4439040;32;19996;-89
2021/08/29 05:12:35;;;;;;;;;;;;;;;15.30;60.02;99301.38;4439075;32;20318;-90
2021/08/29 05:15:00;;;;;;;;;;;;;;;15.39;60.02;99303.47;4437464;32;20003;-89
2021/08/29 05:17:25;;;;;;;;;;;;;;;15.63;60.04;99294.16;4438551;32;19992;-89
2021/08/29 05:19:51;;;;;;;;;;;;;;;15.70;60.03;99299.03;4437000;32;20021;-89
2021/08/29 05:22:16;;;;;;;;;;;;;;;15.48;60.03;99302.06;4437638;32;28105;-90
2021/08/29 05:24:41;;;;;;;;;;;;;;;15.58;60.03;99290.06;4437790;32;20001;-91
2021/08/29 05:27:06;;;;;;;;;;;;;;;15.48;60.03;99292.41;4450726;32;20015;-90
2021/08/29 05:29:32;;;;;;;;;;;;;;;15.56;60.04;99284.94;4437403;32;20017;-90
2021/08/29 05:31:57;;;;;;;;;;;;;;;15.49;60.03;99288.84;4438647;32;20466;-90
2021/08/29 05:34:22;;;;;;;;;;;;;;;15.55;60.04;99290.25;4437379;32;20341;-88
2021/08/29 05:36:47;;;;;;;;;;;;;;;15.71;60.04;99283.22;4450343;32;19984;-89
2021/08/29 05:39:12;;;;;;;;;;;;;;;15.75;60.04;99287.31;4437068;32;20002;-89
2021/08/29 05:41:38;;;;;;;;;;;;;;;15.78;60.05;99289.75;4438404;32;19982;-89
2021/08/29 05:44:03;;;;;;;;;;;;;;;16.00;60.05;99297.16;4437000;32;20743;-88
2021/08/29 05:46:28;;;;;;;;;;;;;;;16.04;60.06;99289.94;4438545;32;20259;-90
2021/08/29 05:48:54;;;;;;;;;;;;;;;16.23;60.06;99290.50;4437055;32;20311;-89
2021/08/29 05:51:19;;;;;;;;;;;;;;;16.34;60.08;99292.47;4438765;32;20274;-90
2021/08/29 05:53:44;;;;;;;;;;;;;;;16.21;60.07;99295.84;4437169;32;19977;-89
2021/08/29 05:56:09;;;;;;;;;;;;;;;16.38;60.08;99293.97;4438309;32;19985;-89
2021/08/29 05:58:35;;;;;;;;;;;;;;;16.50;60.09;99286.13;4450299;32;20332;-89
2021/08/29 06:01:00;;;;;;;;;;;;;;;16.65;60.09;99292.19;4450277;32;19993;-89
2021/08/29 06:03:25;;;;;;;;;;;;;;;16.55;60.09;99291.94;4450169;32;20371;-90
2021/08/29 06:05:51;;;;;;;;;;;;;;;16.61;60.08;99282.84;4450141;32;19985;-89
2021/08/29 06:08:16;;;;;;;;;;;;;;;16.69;60.09;99285.84;4450215;32;20006;-91
2021/08/29 06:10:41;;;;;;;;;;;;;;;16.63;60.08;99285.37;4438711;32;20019;-91
2021/08/29 06:13:06;;;;;;;;;;;;;;;16.76;60.09;99281.84;4450453;32;19978;-90
2021/08/29 06:15:32;;;;;;;;;;;;;;;16.78;60.10;99279.97;4437321;32;20331;-90
2021/08/29 06:17:57;;;;;;;;;;;;;;;16.93;60.11;99272.03;4450084;32;20039;-89
2021/08/29 06:20:24;;;;;;;;;;;;;;;16.75;60.09;99271.44;4450398;32;20029;-88
2021/08/29 06:22:50;;;;;;;;;;;;;;;16.79;60.09;99265.88;4437253;32;20375;-90
2021/08/29 06:25:15;;;;;;;;;;;;;;;16.70;60.10;99266.50;4436570;32;26585;-90
2021/08/29 06:27:40;;;;;;;;;;;;;;;16.82;60.10;99262.25;4436916;32;20050;-89
2021/08/29 06:30:06;;;;;;;;;;;;;;;16.96;60.11;99266.56;4449806;32;20360;-90
2021/08/29 06:32:31;;;;;;;;;;;;;;;17.28;60.12;99259.19;4449144;32;20574;-91
2021/08/29 06:34:56;;;;;;;;;;;;;;;17.29;60.12;99263.50;4450380;32;19981;-91
2021/08/29 06:37:21;;;;;;;;;;;;;;;17.53;60.13;99258.38;4437142;32;20000;-89
2021/08/29 06:39:46;;;;;;;;;;;;;;;17.49;60.14;99261.19;4449409;32;24592;-90
2021/08/29 06:42:12;;;;;;;;;;;;;;;17.43;60.13;99258.97;4450027;32;20013;-90
2021/08/29 06:44:37;;;;;;;;;;;;;;;17.56;60.14;99255.53;4436277;32;25468;-88
2021/08/29 06:47:02;;;;;;;;;;;;;;;17.77;60.14;99254.94;4450021;32;20001;-90
2021/08/29 06:49:27;;;;;;;;;;;;;;;17.73;60.15;99256.06;4438483;32;20298;-89
2021/08/29 06:51:53;;;;;;;;;;;;;;;17.55;60.13;99267.00;4450022;32;20034;-90
2021/08/29 06:54:18;;;;;;;;;;;;;;;17.82;60.15;99261.66;4436847;32;20312;-89
2021/08/29 06:56:43;;;;;;;;;;;;;;;17.88;60.15;99259.44;4437945;32;20278;-89
2021/08/29 06:59:08;;;;;;;;;;;;;;;18.03;60.16;99245.22;4436449;32;30265;-89
2021/08/29 07:01:33;;;;;;;;;;;;;;;18.34;60.18;99243.00;4438274;32;20021;-87
2021/08/29 07:03:59;;;;;;;;;;;;;;;18.30;60.17;99245.03;4438443;32;19969;-89
2021/08/29 07:06:24;;;;;;;;;;;;;;;18.25;60.17;99241.88;4437280;32;20013;-92
2021/08/29 07:08:49;;;;;;;;;;;;;;;18.22;60.17;99257.06;4449927;32;20345;-89
2021/08/29 07:11:14;;;;;;;;;;;;;;;18.22;60.17;99249.16;4438396;32;20009;-91
2021/08/29 07:13:40;;;;;;;;;;;;;;;18.46;60.18;99249.22;4438517;32;19984;-89
2021/08/29 07:16:05;;;;;;;;;;;;;;;18.57;60.19;99244.81;4451702;32;20321;-90
2021/08/29 07:18:30;;;;;;;;;;;;;;;18.68;60.19;99241.41;4449984;32;19998;-89
2021/08/29 07:20:55;;;;;;;;;;;;;;;18.88;60.21;99235.53;4436793;32;20035;-90
2021/08/29 07:23:21;;;;;;;;;;;;;;;19.12;60.22;99234.66;4436741;32;20327;-89
2021/08/29 07:25:46;;;;;;;;;;;;;;;19.00;60.21;99231.97;4449418;32;20031;-90
2021/08/29 07:28:11;;;;;;;;;;;;;;;19.02;60.22;99234.50;4449734;32;20019;-89
2021/08/29 07:30:36;;;;;;;;;;;;;;;18.94;60.21;99232.44;4449488;32;20037;-92
2021/08/29 07:33:02;;;;;;;;;;;;;;;19.11;60.22;99225.88;4436609;32;20329;-90
2021/08/29 07:35:27;;;;;;;;;;;;;;;19.32;60.23;99215.50;4449531;32;20007;-89
2021/08/29 07:37:52;;;;;;;;;;;;;;;19.39;60.24;99226.44;4437857;32;20037;-90
2021/08/29 07:40:19;;;;;;;;;;;;;;;19.59;60.24;99218.69;4436402;32;19970;-90
2021/08/29 07:42:45;;;;;;;;;;;;;;;19.68;60.24;99217.16;4451441;32;19988;-90
2021/08/29 07:45:10;;;;;;;;;;;;;;;19.57;60.24;99217.13;4443073;32;19981;-88
2021/08/29 07:47:35;;;;;;;;;;;;;;;19.43;60.23;99218.19;4454722;32;19982;-89
2021/08/29 07:50:01;;;;;;;;;;;;;;;19.72;60.25;99215.13;4442911;32;20246;-89
2021/08/29 07:52:27;;;;;;;;;;;;;;;19.80;60.26;99194.22;4454442;32;19996;-89
2021/08/29 07:54:52;;;;;;;;;;;;;;;20.00;60.26;99200.56;4454331;32;19989;-89
2021/08/29 07:57:17;;;;;;;;;;;;;;;20.09;60.27;99195.38;4441225;32;20007;-88
2021/08/29 07:59:42;;;;;;;;;;;;;;;20.10;60.27;99206.78;4454098;32;20366;-88
2021/08/29 08:02:08;;;;;;;;;;;;;;;19.94;60.26;99204.53;4440833;32;25730;-89
2021/08/29 08:04:33;;;;;;;;;;;;;;;19.88;60.26;99202.41;4442642;32;20262;-88
2021/08/29 08:06:59;;;;;;;;;;;;;;;19.88;60.26;99215.59;4440843;32;24127;-88
2021/08/29 08:09:24;;;;;;;;;;;;;;;19.87;60.26;99205.97;4442555;32;19996;-88
2021/08/29 08:11:49;;;;;;;;;;;;;;;19.98;60.27;99199.84;4454165;32;20330;-88
2021/08/29 08:14:14;;;;;;;;;;;;;;;19.96;60.27;99199.13;4441796;32;29310;-88
2021/08/29 08:16:40;;;;;;;;;;;;;;;20.04;60.27;99199.34;4442577;32;20038;-89
2021/08/29 08:19:05;;;;;;;;;;;;;;;19.90;60.26;99206.59;4453419;32;27177;-89
2021/08/29 08:21:30;;;;;;;;;;;;;;;20.12;60.27;99194.31;4440880;32;19981;-86
2021/08/29 08:23:55;;;;;;;;;;;;;;;20.11;60.27;99197.91;4442406;32;20310;-86
2021/08/29 08:26:21;;;;;;;;;;;;;;;20.29;60.28;99191.13;4454034;32;19993;-86
2021/08/29 08:28:46;;;;;;;;;;;;;;;20.55;60.29;99191.69;4441062;32;20007;-86
2021/08/29 08:31:11;;;;;;;;;;;;;;;20.81;60.31;99198.31;4440419;32;33163;-86
2021/08/29 08:33:36;;;;;;;;;;;;;;;20.91;60.31;99193.13;4442245;32;20255;-87
2021/08/29 08:36:02;;;;;;;;;;;;;;;21.08;60.31;99184.59;4442170;32;19993;-86
2021/08/29 08:38:27;;;;;;;;;;;;;;;21.25;60.33;99187.66;4440803;32;20299;-86
2021/08/29 08:40:52;;;;;;;;;;;;;;;21.12;60.33;99186.03;4441771;32;20633;-85
2021/08/29 08:43:17;;;;;;;;;;;;;;;21.38;60.33;99183.84;4441928;32;20008;-86
2021/08/29 08:45:43;;;;;;;;;;;;;;;21.44;60.34;99183.31;4453584;32;20031;-86
2021/08/29 08:48:08;;;;;;;;;;;;;;;21.43;60.34;99184.28;4453013;32;29465;-86
2021/08/29 08:50:34;;;;;;;;;;;;;;;21.49;60.35;99188.19;4440578;32;19977;-86
2021/08/29 08:53:00;;;;;;;;;;;;;;;21.67;60.35;99172.53;4441656;32;20299;-85
2021/08/29 08:55:25;;;;;;;;;;;;;;;21.62;60.35;99177.41;4438280;32;20018;-86
2021/08/29 08:57:50;;;;;;;;;;;;;;;21.80;60.36;99164.38;4450521;32;20077;-86
2021/08/29 09:00:16;;;;;;;;;;;;;;;21.84;60.36;99161.31;4450310;32;19981;-85
2021/08/29 09:02:41;;;;;;;;;;;;;;;21.85;60.36;99159.50;4436765;32;20159;-88
2021/08/29 09:05:07;;;;;;;;;;;;;;;22.04;60.38;99159.59;4449665;32;19990;-86
2021/08/29 09:07:33;;;;;;;;;;;;;;;22.18;60.37;99161.00;4436600;32;20049;-87
2021/08/29 09:09:58;;;;;;;;;;;;;;;22.22;60.38;99160.56;4449944;32;19985;-88
2021/08/29 09:12:23;;;;;;;;;;;;;;;22.47;60.39;99153.91;4449281;32;26770;-86
2021/08/29 09:14:49;;;;;;;;;;;;;;;22.82;60.41;99152.53;4436489;32;20033;-88
2021/08/29 09:17:21;;;;;;;;;;;;;;;22.98;60.42;99146.66;4436467;32;20014;-89
2021/08/29 09:19:46;;;;;;;;;;;;;;;22.96;60.42;99146.81;4436694;32;19991;-86
2021/08/29 09:22:13;;;;;;;;;;;;;;;22.96;60.41;99154.78;4436358;32;21190;-88
2021/08/29 09:24:38;;;;;;;;;;;;;;;22.98;60.42;99154.63;4436613;32;20004;-85
2021/08/29 09:27:03;;;;;;;;;;;;;;;23.03;60.42;99150.56;4448960;32;19978;-88
2021/08/29 09:29:29;;;;;;;;;;;;;;;23.08;60.43;99152.78;4448850;32;19986;-88
2021/08/29 09:31:54;;;;;;;;;;;;;;;23.22;60.44;99145.22;4437259;32;24103;-88
2021/08/29 09:34:20;;;;;;;;;;;;;;;23.63;60.46;99139.63;4449211;32;19989;-87
2021/08/29 09:36:45;;;;;;;;;;;;;;;23.63;60.45;99144.94;4437770;32;19978;-87
2021/08/29 09:39:12;;;;;;;;;;;;;;;23.66;60.45;99147.31;4449060;32;20331;-86
2021/08/29 09:41:37;;;;;;;;;;;;;;;23.77;60.46;99140.00;4449506;32;20243;-86
2021/08/29 09:44:09;;;;;;;;;;;;;;;23.82;60.47;99139.53;4450018;32;20073;-87
2021/08/29 09:46:47;;;;;;;;;;;;;;;24.20;60.50;99135.81;4449960;32;20373;-86
2021/08/29 09:49:12;;;;;;;;;;;;;;;24.39;60.50;99133.06;4449517;32;20058;-86
2021/08/29 09:51:44;;;;;;;;;;;;;;;24.42;60.50;99138.06;4435555;32;28983;-86
2021/08/29 09:54:09;;;;;;;;;;;;;;;24.35;60.49;99133.50;4437746;32;19997;-88
2021/08/29 09:56:34;;;;;;;;;;;;;;;24.59;60.51;99133.72;4435925;32;20026;-87
2021/08/29 09:58:59;;;;;;;;;;;;;;;24.79;60.52;99135.22;4435947;32;21956;-88
2021/08/29 10:01:25;;;;;;;;;;;;;;;24.87;60.52;99121.16;4436464;32;20017;-88
2021/08/29 10:03:50;;;;;;;;;;;;;;;25.18;60.54;99120.72;4437366;32;20028;-88
2021/08/29 10:06:19;;;;;;;;;;;;;;;25.19;60.54;99115.22;4437692;32;19989;-89
2021/08/29 10:08:45;;;;;;;;;;;;;;;25.33;60.55;99104.00;4437715;32;19978;-88
2021/08/29 10:11:10;;;;;;;;;;;;;;;25.09;60.54;99117.19;4449380;32;20043;-89
2021/08/29 10:13:36;;;;;;;;;;;;;;;25.12;60.53;99110.69;4437729;32;19982;-87
2021/08/29 10:16:01;;;;;;;;;;;;;;;24.85;60.53;99115.16;4437468;32;19995;-89
2021/08/29 10:18:27;;;;;;;;;;;;;;;24.91;60.52;99121.66;4449028;32;19998;-88
2021/08/29 10:20:52;;;;;;;;;;;;;;;24.75;60.51;99117.06;4448687;32;20025;-87
2021/08/29 10:23:17;;;;;;;;;;;;;;;24.75;60.51;99117.06;4448959;32;19986;-87
2021/08/29 10:25:43;;;;;;;;;;;;;;;24.69;60.52;99123.00;4436041;32;20052;-87
2021/08/29 10:28:10;;;;;;;;;;;;;;;24.39;60.51;99118.91;4436115;32;19989;-88
2021/08/29 10:30:36;;;;;;;;;;;;;;;24.34;60.50;99111.38;4448989;32;20033;-87
2021/08/29 10:33:04;;;;;;;;;;;;;;;24.51;60.50;99117.69;4449355;32;20335;-86
2021/08/29 10:35:30;;;;;;;;;;;;;;;24.33;60.50;99115.03;4436718;32;19970;-87
2021/08/29 10:37:55;;;;;;;;;;;;;;;23.93;60.48;99112.78;4438040;32;20000;-88
2021/08/29 10:40:24;;;;;;;;;;;;;;;23.96;60.47;99107.16;4436597;32;20020;-87
2021/08/29 10:42:49;;;;;;;;;;;;;;;23.89;60.49;99112.22;4449385;32;20037;-87
2021/08/29 10:45:14;;;;;;;;;;;;;;;24.21;60.50;99100.25;4436384;32;25048;-88
2021/08/29 10:47:40;;;;;;;;;;;;;;;24.25;60.50;99111.44;4438261;32;20304;-87
2021/08/29 10:50:08;;;;;;;;;;;;;;;24.04;60.48;99109.87;4437257;32;19977;-87
2021/08/29 10:52:34;;;;;;;;;;;;;;;23.59;60.47;99099.25;4449686;32;19999;-87
2021/08/29 10:55:04;;;;;;;;;;;;;;;23.60;60.46;99108.03;4438370;32;20010;-87
2021/08/29 10:57:30;;;;;;;;;;;;;;;23.56;60.46;99105.69;4436895;32;20011;-88
2021/08/29 11:00:04;;;;;;;;;;;;;;;23.50;60.47;99108.91;4449680;32;20345;-86
2021/08/29 11:02:43;;;;;;;;;;;;;;;23.57;60.47;99107.34;4438223;32;20009;-88
2021/08/29 11:05:09;;;;;;;;;;;;;;;23.53;60.46;99119.22;4449701;32;20003;-86
2021/08/29 11:07:44;;;;;;;;;;;;;;;23.48;60.46;99144.56;4449604;32;20037;-87
2021/08/29 11:10:17;;;;;;;;;;;;;;;23.60;60.46;99146.06;4449498;32;19989;-87
2021/08/29 11:12:42;;;;;;;;;;;;;;;23.34;60.46;99142.38;4438004;32;20000;-88
2021/08/29 11:15:08;;;;;;;;;;;;;;;23.15;60.44;99137.94;4449153;32;19993;-86
2021/08/29 11:17:37;;;;;;;;;;;;;;;22.95;60.42;99138.00;4435797;32;19990;-87
2021/08/29 11:20:02;;;;;;;;;;;;;;;22.72;60.42;99146.38;4449518;32;20645;-87
2021/08/29 11:22:28;;;;;;;;;;;;;;;22.67;60.42;99150.28;4437913;32;19973;-86
2021/08/29 11:24:53;;;;;;;;;;;;;;;22.63;60.42;99146.22;4437691;32;19989;-87
2021/08/29 11:27:34;;;;;;;;;;;;;;;22.64;60.42;99149.72;4438013;32;20015;-87
2021/08/29 11:30:05;;;;;;;;;;;;;;;22.66;60.42;99147.75;4437939;32;20000;-88
2021/08/29 11:32:30;;;;;;;;;;;;;;;22.42;60.41;99142.88;4438033;32;20357;-87
2021/08/29 11:35:05;;;;;;;;;;;;;;;22.32;60.40;99140.22;4437563;32;20075;-87
2021/08/29 11:37:31;;;;;;;;;;;;;;;22.10;60.40;99148.44;4411945;32;783774;-86
2021/08/29 11:40:02;;;;;;;;;;;;;;;21.94;60.37;99145.44;4449274;32;20069;-87
2021/08/29 11:42:28;;;;;;;;;;;;;;;21.97;60.38;99135.38;4436182;32;19989;-88
2021/08/29 11:44:53;;;;;;;;;;;;;;;21.89;60.38;99140.53;4449079;32;20011;-87
2021/08/29 11:47:18;;;;;;;;;;;;;;;21.78;60.37;99142.47;4435457;32;20037;-86
2021/08/29 11:49:43;;;;;;;;;;;;;;;21.58;60.36;99144.22;4434935;32;25997;-87
2021/08/29 11:52:08;;;;;;;;;;;;;;;21.43;60.35;99141.06;4447923;32;23761;-87
2021/08/29 11:54:34;;;;;;;;;;;;;;;21.30;60.35;99148.41;4435089;32;19992;-87
2021/08/29 11:56:59;;;;;;;;;;;;;;;20.83;60.32;99155.87;4448075;32;20270;-87
2021/08/29 11:59:25;;;;;;;;;;;;;;;21.01;60.34;99158.78;4437018;32;20259;-87
2021/08/29 12:01:53;;;;;;;;;;;;;;;20.80;60.32;99169.34;4447939;32;20003;-87
2021/08/29 12:04:19;;;;;;;;;;;;;;;20.34;60.30;99167.81;4448592;32;20004;-87
2021/08/29 12:06:44;;;;;;;;;;;;;;;20.58;60.30;99169.44;4448557;32;19973;-87
2021/08/29 12:09:28;;;;;;;;;;;;;;;20.67;60.31;99184.56;4435376;32;20390;-88
2021/08/29 12:11:53;;;;;;;;;;;;;;;20.34;60.30;99181.03;4436625;32;20016;-87
2021/08/29 12:14:20;;;;;;;;;;;;;;;20.14;60.29;99202.97;4429365;32;20345;-86
2021/08/29 12:16:46;;;;;;;;;;;;;;;20.03;60.28;99209.09;4448210;32;20291;-87
2021/08/29 12:19:12;;;;;;;;;;;;;;;19.67;60.27;99202.28;4448239;32;20346;-87
2021/08/29 12:21:38;;;;;;;;;;;;;;;19.41;60.25;99196.34;4447849;32;20045;-87
2021/08/29 12:24:03;;;;;;;;;;;;;;;19.22;60.23;99191.63;4434970;32;20020;-86
2021/08/29 12:26:32;;;;;;;;;;;;;;;19.03;60.23;99188.72;4447955;32;20001;-84
2021/08/29 12:29:01;;;;;;;;;;;;;;;18.93;60.23;99185.94;4447550;32;19985;-85
2021/08/29 12:31:26;;;;;;;;;;;;;;;19.11;60.23;99177.56;4450029;32;19989;-84
2021/08/29 12:33:51;;;;;;;;;;;;;;;19.10;60.23;99171.44;4437960;32;20381;-84
2021/08/29 12:36:17;;;;;;;;;;;;;;;18.89;60.22;99181.81;4448700;32;30412;-86
2021/08/29 12:38:42;;;;;;;;;;;;;;;18.97;60.22;99171.56;4450203;32;20029;-86
2021/08/29 12:41:07;;;;;;;;;;;;;;;18.98;60.22;99167.12;4436946;32;19997;-86